Archival Weather

Batten Intl

Racine, Wisconsin (KRAC)

Report from: Thursday, February 22, 2024 7:53 AM CST
Current time: Tuesday, April 23, 2024 2:45 AM CDT

Current weather – Weather history – Daily summaries
Weather forecast

Present weatherHaze
Temperature2.8°C (37.0°F)
Dew point0.0°C (32.0°F)
Winds Calm
Visibility6 mi. (9.7 km)
Clouds Sky clear
Altimeter29.77 in.Hg (1008 mB)
Relative humidity82 %
Density altitude-1,230 ft. (-375 m)
Sea-level pressure100.9 kPa (1009 mB, 29.78 in.Hg)
Remarks Fully automated report
Automated weather observing station with precipitation discriminator
Flight conditions Visual Meteorological Conditions
Raw dataKRAC 221353Z AUTO 00000KT 6SM HZ CLR 03/00 A2977 RMK AO2 SLP086 T00280000
An error has occurred. This application may no longer respond until reloaded. Reload 🗙